Time;durP1;ratioP1;P1;durP2;ratioP2;P2;SDS_P1;SDS_P2;PMS_P1;PMS_P2;Temp;Humidity;BMP_temperature;BMP_pressure;BME280_temperature;BME280_humidity;BME280_pressure;Samples;Min_cycle;Max_cycle;Signal;HPM_P1;HPM_P2
2022/01/11 10:12:52;;;;;;;29.40;26.67;;;5.00;99.90;;;;;;5083099;27;21222;-73
2022/01/11 10:15:27;;;;;;;32.07;28.87;;;7.00;99.90;;;;;;5083289;28;20442;-73
2022/01/11 10:17:54;;;;;;;34.37;29.93;;;7.10;99.90;;;;;;5083097;28;20465;-73
2022/01/11 10:20:24;;;;;;;31.93;28.63;;;7.00;99.90;;;;;;5082966;28;20811;-73
2022/01/11 10:22:53;;;;;;;30.50;27.50;;;7.10;99.90;;;;;;5082903;28;20478;-73
2022/01/11 10:25:20;;;;;;;29.03;26.43;;;7.30;99.90;;;;;;5083011;27;20458;-72
2022/01/11 10:27:56;;;;;;;31.90;28.70;;;7.40;99.90;;;;;;5083509;27;20458;-73
2022/01/11 10:30:26;;;;;;;29.73;27.03;;;7.70;99.90;;;;;;5082902;28;20735;-73
2022/01/11 10:32:54;;;;;;;29.20;26.27;;;7.70;99.90;;;;;;5083110;27;20438;-73
2022/01/11 10:35:24;;;;;;;32.30;27.13;;;7.70;99.90;;;;;;5082780;27;20450;-73
2022/01/11 10:37:53;;;;;;;28.30;25.50;;;7.90;99.90;;;;;;5082820;27;20481;-72
2022/01/11 10:40:21;;;;;;;28.60;25.87;;;8.20;99.90;;;;;;5082962;27;20457;-73
2022/01/11 10:42:51;;;;;;;30.57;26.33;;;8.20;99.90;;;;;;5082766;28;20446;-73
2022/01/11 10:45:21;;;;;;;30.50;27.40;;;8.40;99.90;;;;;;5082842;28;20451;-73
2022/01/11 10:47:50;;;;;;;30.87;28.13;;;8.20;99.90;;;;;;5082949;28;20956;-72
2022/01/11 10:50:19;;;;;;;31.20;27.90;;;8.20;99.90;;;;;;5082822;28;20479;-73
2022/01/11 10:52:47;;;;;;;26.80;24.20;;;8.10;99.90;;;;;;5082923;28;20453;-73
2022/01/11 10:55:17;;;;;;;27.17;24.60;;;8.30;99.90;;;;;;5082821;27;20948;-73
2022/01/11 10:57:48;;;;;;;29.53;26.60;;;8.40;99.90;;;;;;5082934;27;20475;-73
2022/01/11 11:00:20;;;;;;;26.97;24.57;;;8.50;99.90;;;;;;5082715;27;20450;-72
2022/01/11 11:02:57;;;;;;;24.67;22.37;;;8.60;99.90;;;;;;5082766;27;20549;-73
2022/01/11 11:05:29;;;;;;;25.77;23.17;;;8.70;99.90;;;;;;5082256;28;20443;-72
2022/01/11 11:08:06;;;;;;;26.90;24.37;;;9.00;99.90;;;;;;5082219;27;20447;-73
2022/01/11 11:10:42;;;;;;;26.87;24.37;;;9.00;99.90;;;;;;5082508;28;20453;-73
2022/01/11 11:13:11;;;;;;;28.17;25.33;;;9.00;99.90;;;;;;5072164;28;20453;-72
2022/01/11 11:15:40;;;;;;;28.73;25.17;;;9.20;99.90;;;;;;5068948;27;20455;-73
2022/01/11 11:18:23;;;;;;;32.40;26.73;;;9.40;99.90;;;;;;5068530;28;20447;-73
2022/01/11 11:20:49;;;;;;;24.07;21.57;;;9.40;99.90;;;;;;5068775;28;20443;-73
2022/01/11 11:23:17;;;;;;;30.13;27.27;;;9.50;99.90;;;;;;5069058;27;20792;-73
2022/01/11 11:25:43;;;;;;;26.53;24.00;;;9.50;99.90;;;;;;5068776;27;20448;-73
2022/01/11 11:28:10;;;;;;;20.00;18.13;;;9.60;99.90;;;;;;5068582;27;20459;-72
2022/01/11 11:30:38;;;;;;;17.83;16.43;;;9.30;99.90;;;;;;5068370;28;20467;-73
2022/01/11 11:33:06;;;;;;;17.10;15.70;;;9.20;99.90;;;;;;5068370;28;20447;-72
2022/01/11 11:35:33;;;;;;;15.87;14.83;;;8.90;99.90;;;;;;5068754;27;20504;-73
2022/01/11 11:38:03;;;;;;;16.80;15.60;;;8.80;99.90;;;;;;5068629;28;20451;-73
2022/01/11 11:40:31;;;;;;;16.87;15.67;;;8.60;99.90;;;;;;5068453;28;20934;-72
2022/01/11 11:42:59;;;;;;;15.53;14.43;;;8.60;99.90;;;;;;5068423;28;20451;-72
2022/01/11 11:45:28;;;;;;;15.80;14.60;;;8.50;99.90;;;;;;5068142;28;20459;-73
2022/01/11 11:48:06;;;;;;;15.50;14.50;;;8.80;99.90;;;;;;5068346;28;20455;-72
2022/01/11 11:50:34;;;;;;;15.80;14.70;;;8.70;99.90;;;;;;5068166;28;20783;-72
2022/01/11 11:53:01;;;;;;;18.10;16.50;;;9.00;99.90;;;;;;5068155;28;20455;-72
2022/01/11 11:55:31;;;;;;;16.83;15.30;;;9.00;99.90;;;;;;5068216;28;20450;-72
2022/01/11 11:58:00;;;;;;;15.87;14.63;;;9.40;99.90;;;;;;5067810;28;20447;-72
2022/01/11 12:00:29;;;;;;;16.07;14.83;;;10.20;99.90;;;;;;5067890;27;20455;-74
2022/01/11 12:02:58;;;;;;;15.47;14.43;;;10.20;99.40;;;;;;5067725;28;20990;-73
2022/01/11 12:05:37;;;;;;;14.90;13.80;;;9.70;99.90;;;;;;5067982;28;20646;-74
2022/01/11 12:08:33;;;;;;;15.77;14.63;;;9.70;99.90;;;;;;5068020;27;20791;-74
2022/01/11 12:11:03;;;;;;;14.00;13.17;;;9.40;99.90;;;;;;5067880;27;20481;-73
2022/01/11 12:13:45;;;;;;;15.03;13.80;;;9.00;99.90;;;;;;5067985;28;20447;-74
2022/01/11 12:16:39;;;;;;;14.43;13.53;;;8.60;99.90;;;;;;5067603;28;20447;-73
2022/01/11 12:19:09;;;;;;;13.80;12.97;;;8.40;99.90;;;;;;5067701;28;20455;-73
2022/01/11 12:21:43;;;;;;;10.93;10.23;;;8.10;99.90;;;;;;5067733;28;20443;-73
2022/01/11 12:24:10;;;;;;;13.90;13.00;;;7.90;99.90;;;;;;5066826;27;20461;-72
2022/01/11 12:26:38;;;;;;;15.00;13.77;;;7.80;99.90;;;;;;5067917;27;20447;-73
2022/01/11 12:29:25;;;;;;;13.73;12.93;;;7.70;99.90;;;;;;5067608;28;20451;-73
2022/01/11 12:31:56;;;;;;;13.40;12.13;;;7.80;99.90;;;;;;5067365;28;20853;-74
2022/01/11 12:34:54;;;;;;;11.43;10.73;;;7.70;99.90;;;;;;5067634;28;20443;-74
2022/01/11 12:37:31;;;;;;;12.80;12.00;;;7.70;99.90;;;;;;5067471;28;20955;-74
2022/01/11 12:40:06;;;;;;;12.20;11.17;;;7.70;99.90;;;;;;5067497;28;20454;-74
2022/01/11 12:42:33;;;;;;;10.47;9.97;;;7.60;99.90;;;;;;5067721;28;20453;-73
2022/01/11 12:47:46;;;;;;;11.07;10.50;;;7.10;99.90;;;;;;5067485;28;20415;-74
2022/01/11 12:50:14;;;;;;;11.60;10.90;;;7.10;99.90;;;;;;5067354;28;20478;-74
2022/01/11 12:52:43;;;;;;;10.87;10.37;;;7.10;99.90;;;;;;5067365;27;20487;-74
2022/01/11 12:55:12;;;;;;;12.00;11.40;;;7.10;99.90;;;;;;5067119;28;20455;-72
2022/01/11 12:57:39;;;;;;;12.03;11.43;;;7.20;99.90;;;;;;5067104;28;20821;-73
2022/01/11 13:00:10;;;;;;;11.97;11.37;;;7.30;99.90;;;;;;5067130;28;20450;-73
2022/01/11 13:02:37;;;;;;;10.90;10.30;;;7.30;99.90;;;;;;5066902;28;20467;-73
2022/01/11 13:05:08;;;;;;;12.40;11.80;;;7.30;99.90;;;;;;5067055;28;20469;-72
2022/01/11 13:07:37;;;;;;;11.37;10.77;;;7.20;99.90;;;;;;5066843;27;20955;-73
2022/01/11 13:10:12;;;;;;;10.63;10.13;;;7.20;99.90;;;;;;5066852;27;20442;-73
2022/01/11 13:12:41;;;;;;;11.13;10.30;;;7.20;99.90;;;;;;5066687;27;20512;-73
2022/01/11 13:15:13;;;;;;;11.80;11.20;;;7.00;99.90;;;;;;5066545;27;20957;-73
2022/01/11 13:17:51;;;;;;;12.20;11.57;;;6.90;99.90;;;;;;5066798;27;21017;-73
2022/01/11 13:20:18;;;;;;;12.03;11.33;;;6.80;99.90;;;;;;5066966;28;20454;-73
2022/01/11 13:23:15;;;;;;;13.70;12.90;;;6.60;99.90;;;;;;5066917;28;20447;-73
2022/01/11 13:25:49;;;;;;;11.90;11.17;;;6.50;99.90;;;;;;5066803;27;20510;-73
2022/01/11 13:28:17;;;;;;;13.20;12.30;;;6.30;99.90;;;;;;5067105;28;20455;-72
2022/01/11 13:30:48;;;;;;;13.00;12.27;;;6.30;99.90;;;;;;5066818;28;20447;-73
2022/01/11 13:33:24;;;;;;;12.20;11.30;;;6.40;99.90;;;;;;5066929;27;20483;-74
2022/01/11 13:35:51;;;;;;;12.33;11.60;;;6.50;99.90;;;;;;5066250;28;20489;-74
2022/01/11 13:38:17;;;;;;;12.70;11.83;;;6.50;99.90;;;;;;5066635;28;20458;-73
2022/01/11 13:40:46;;;;;;;10.97;10.27;;;6.50;99.90;;;;;;5066616;28;20463;-72
2022/01/11 13:43:14;;;;;;;12.40;11.73;;;6.50;99.90;;;;;;5066497;28;20443;-73
2022/01/11 13:45:43;;;;;;;11.83;11.20;;;6.50;99.90;;;;;;5066636;27;20440;-73
2022/01/11 13:48:12;;;;;;;11.80;11.10;;;6.60;99.90;;;;;;5066380;28;20450;-73
2022/01/11 13:50:53;;;;;;;11.13;10.63;;;6.60;99.90;;;;;;5066380;28;20464;-73
2022/01/11 13:53:22;;;;;;;10.77;10.13;;;6.40;99.90;;;;;;5066033;28;21088;-73
2022/01/11 13:55:51;;;;;;;12.80;12.03;;;6.50;99.90;;;;;;5066339;28;20453;-73
2022/01/11 13:58:18;;;;;;;12.50;11.90;;;6.60;99.90;;;;;;5066483;27;20872;-73
2022/01/11 14:00:45;;;;;;;12.00;11.30;;;6.70;99.90;;;;;;5066767;27;20449;-73
2022/01/11 14:03:14;;;;;;;11.40;10.80;;;6.60;99.90;;;;;;5065895;28;20860;-73
2022/01/11 14:05:41;;;;;;;12.47;11.67;;;6.60;99.90;;;;;;5066174;28;20462;-73
2022/01/11 14:08:10;;;;;;;12.80;12.10;;;6.60;99.90;;;;;;5065921;28;20583;-73
2022/01/11 14:10:37;;;;;;;11.60;11.00;;;6.60;99.90;;;;;;5066223;27;20863;-72
2022/01/11 14:13:07;;;;;;;12.53;11.83;;;6.50;99.90;;;;;;5066309;27;20550;-73
2022/01/11 14:15:34;;;;;;;12.00;11.30;;;6.60;99.90;;;;;;5066302;28;20803;-73
2022/01/11 14:18:10;;;;;;;13.10;12.30;;;6.50;99.90;;;;;;5066173;28;20968;-73
2022/01/11 14:20:37;;;;;;;11.90;11.30;;;6.40;99.90;;;;;;5066103;28;20793;-73
2022/01/11 14:23:11;;;;;;;13.80;12.80;;;6.40;99.90;;;;;;5066180;28;20478;-73
2022/01/11 14:25:41;;;;;;;12.63;12.03;;;6.30;99.90;;;;;;5066200;28;20458;-73
2022/01/11 14:28:11;;;;;;;13.17;12.47;;;6.30;99.90;;;;;;5065818;28;20452;-73
2022/01/11 14:30:41;;;;;;;12.50;11.73;;;6.30;99.90;;;;;;5065781;27;20642;-72
2022/01/11 14:33:09;;;;;;;11.77;11.00;;;6.20;99.90;;;;;;5065518;28;20476;-72
2022/01/11 14:35:37;;;;;;;12.87;12.17;;;6.30;99.90;;;;;;5065779;28;20454;-72
2022/01/11 14:38:05;;;;;;;12.90;12.10;;;6.30;99.90;;;;;;5065934;28;20500;-73
2022/01/11 14:40:34;;;;;;;12.73;11.80;;;6.30;99.90;;;;;;5066083;28;20451;-73
2022/01/11 14:43:16;;;;;;;12.03;11.10;;;6.20;99.90;;;;;;5065929;28;20463;-73
2022/01/11 14:45:47;;;;;;;12.90;12.07;;;6.20;99.90;;;;;;5065665;28;20455;-72
2022/01/11 14:48:14;;;;;;;13.53;12.40;;;6.10;99.90;;;;;;5067626;27;20866;-73
2022/01/11 14:50:40;;;;;;;13.60;12.67;;;6.20;99.90;;;;;;5069403;28;20460;-74
2022/01/11 14:53:11;;;;;;;11.33;10.73;;;6.30;99.90;;;;;;5069004;28;20975;-74
2022/01/11 14:55:57;;;;;;;12.70;12.00;;;6.10;99.90;;;;;;5069198;27;20580;-73
2022/01/11 14:58:35;;;;;;;13.40;12.40;;;6.10;99.90;;;;;;5068953;28;20662;-73
2022/01/11 15:01:04;;;;;;;12.80;12.00;;;6.00;99.90;;;;;;5069339;28;20450;-73
2022/01/11 15:03:38;;;;;;;13.47;12.60;;;6.10;99.90;;;;;;5069144;28;20830;-73
2022/01/11 15:06:14;;;;;;;13.63;12.83;;;6.00;99.90;;;;;;5068987;28;20446;-73
2022/01/11 15:08:43;;;;;;;12.03;11.40;;;6.00;99.90;;;;;;5068907;28;20456;-73
2022/01/11 15:11:14;;;;;;;12.63;11.90;;;6.00;99.90;;;;;;5068373;28;20475;-73
2022/01/11 15:13:45;;;;;;;11.10;10.43;;;5.90;99.90;;;;;;5068828;28;20486;-73
2022/01/11 15:16:13;;;;;;;14.53;13.70;;;5.90;99.90;;;;;;5068871;28;20466;-74
2022/01/11 15:18:41;;;;;;;13.40;12.70;;;5.90;99.90;;;;;;5068602;28;20846;-73
2022/01/11 15:21:08;;;;;;;13.03;12.43;;;5.90;99.90;;;;;;5068657;28;20455;-73
2022/01/11 15:23:37;;;;;;;12.47;11.83;;;5.80;99.90;;;;;;5068602;27;20450;-73
2022/01/11 15:26:04;;;;;;;12.93;12.13;;;5.80;99.90;;;;;;5068958;27;20455;-73
2022/01/11 15:28:31;;;;;;;14.10;13.10;;;5.80;99.90;;;;;;5068984;27;20450;-71
2022/01/11 15:30:59;;;;;;;13.07;12.27;;;5.80;99.90;;;;;;5068406;28;20444;-72
2022/01/11 15:33:26;;;;;;;13.27;12.37;;;5.90;99.90;;;;;;5068361;28;20487;-72
2022/01/11 15:35:52;;;;;;;13.13;12.30;;;6.00;99.90;;;;;;5068570;27;20576;-74
2022/01/11 15:38:19;;;;;;;12.57;11.87;;;5.90;99.90;;;;;;5068526;28;20451;-74
2022/01/11 15:40:46;;;;;;;13.03;12.23;;;6.00;99.90;;;;;;5068682;28;20456;-74
2022/01/11 15:43:13;;;;;;;13.20;12.50;;;6.00;99.90;;;;;;5068422;28;20448;-74
2022/01/11 15:45:40;;;;;;;14.00;12.77;;;5.90;99.90;;;;;;5068349;27;20453;-74
2022/01/11 15:48:08;;;;;;;14.07;13.17;;;5.90;99.90;;;;;;5068222;27;20769;-74
2022/01/11 15:50:34;;;;;;;14.80;13.80;;;5.80;99.90;;;;;;5068358;28;20454;-74
2022/01/11 15:53:01;;;;;;;15.90;14.43;;;5.80;99.90;;;;;;5068362;28;20490;-73
2022/01/11 15:55:28;;;;;;;13.40;12.60;;;5.70;99.90;;;;;;5068352;28;20449;-74
2022/01/11 15:57:55;;;;;;;14.10;13.07;;;5.80;99.90;;;;;;5067905;28;20502;-74
2022/01/11 16:00:22;;;;;;;12.87;12.07;;;5.70;99.90;;;;;;5068055;27;20545;-73
2022/01/11 16:02:48;;;;;;;12.20;11.50;;;5.60;99.90;;;;;;5068040;28;20470;-74
2022/01/11 16:05:16;;;;;;;13.77;12.97;;;5.60;99.90;;;;;;5068214;28;20462;-74
2022/01/11 16:07:43;;;;;;;13.10;12.40;;;5.60;99.90;;;;;;5068102;28;20451;-73
2022/01/11 16:10:10;;;;;;;12.23;11.47;;;5.60;99.90;;;;;;5067814;28;20451;-74
2022/01/11 16:12:37;;;;;;;11.60;10.90;;;5.50;99.90;;;;;;5067673;28;20505;-73
2022/01/11 16:15:04;;;;;;;12.47;11.70;;;5.50;99.90;;;;;;5067993;28;20470;-73
2022/01/11 16:17:31;;;;;;;14.57;13.37;;;5.40;99.90;;;;;;5068209;27;20452;-73
2022/01/11 16:19:58;;;;;;;13.10;12.40;;;5.40;99.90;;;;;;5067785;28;20451;-73
2022/01/11 16:22:33;;;;;;;12.83;12.20;;;5.40;99.90;;;;;;5067872;27;20462;-74
2022/01/11 16:25:00;;;;;;;12.90;12.10;;;5.30;99.90;;;;;;5068227;27;20462;-73
2022/01/11 16:27:27;;;;;;;12.50;11.87;;;5.30;99.90;;;;;;5067678;28;20452;-73
2022/01/11 16:29:54;;;;;;;12.83;12.00;;;5.30;99.90;;;;;;5067717;28;20451;-74
2022/01/11 16:32:23;;;;;;;12.43;11.57;;;5.30;99.90;;;;;;5067527;28;20842;-73
2022/01/11 16:34:50;;;;;;;12.07;11.37;;;5.20;99.90;;;;;;5067620;27;20456;-74
2022/01/11 16:37:17;;;;;;;12.80;11.83;;;5.30;99.90;;;;;;5067715;28;20942;-74
2022/01/11 16:39:53;;;;;;;13.37;12.67;;;5.20;99.90;;;;;;5067566;28;20451;-73
2022/01/11 16:45:06;;;;;;;11.90;11.10;;;5.20;99.90;;;;;;5067672;28;20446;-73
2022/01/11 16:47:33;;;;;;;12.50;11.80;;;5.20;99.90;;;;;;5067465;28;20816;-73
2022/01/11 16:50:00;;;;;;;13.20;12.30;;;5.10;99.90;;;;;;5067662;27;20822;-73
2022/01/11 16:52:27;;;;;;;12.80;12.10;;;5.10;99.90;;;;;;5067076;28;20831;-73
2022/01/11 16:54:55;;;;;;;13.73;12.70;;;5.10;99.90;;;;;;5067094;28;20451;-74
2022/01/11 16:57:22;;;;;;;12.70;12.00;;;5.10;99.90;;;;;;5066950;28;20970;-73
2022/01/11 16:59:49;;;;;;;13.17;12.17;;;5.10;99.90;;;;;;5067312;27;20459;-73
2022/01/11 17:02:16;;;;;;;13.43;12.60;;;5.10;99.90;;;;;;5067226;28;20447;-73
2022/01/11 17:04:43;;;;;;;11.90;11.20;;;5.00;99.90;;;;;;5067046;28;20863;-73
2022/01/11 17:07:10;;;;;;;12.30;11.40;;;5.10;99.90;;;;;;5066864;28;20455;-74
2022/01/11 17:09:36;;;;;;;12.70;11.90;;;5.10;99.90;;;;;;5066467;28;20453;-73
2022/01/11 17:12:05;;;;;;;12.70;12.00;;;5.10;99.90;;;;;;5066479;28;20725;-72
2022/01/11 17:14:32;;;;;;;13.00;12.20;;;5.10;99.90;;;;;;5067320;28;20818;-73
2022/01/11 17:16:59;;;;;;;12.87;11.97;;;5.10;99.90;;;;;;5067170;27;20447;-74
2022/01/11 17:19:26;;;;;;;12.83;12.13;;;5.00;99.90;;;;;;5066832;28;20962;-74
2022/01/11 17:21:54;;;;;;;12.63;11.40;;;5.00;99.90;;;;;;5066660;28;20454;-73
2022/01/11 17:24:20;;;;;;;12.70;12.00;;;5.00;99.90;;;;;;5066641;28;20493;-74
2022/01/11 17:26:47;;;;;;;12.43;11.53;;;5.10;99.90;;;;;;5067132;28;20452;-73
2022/01/11 17:29:17;;;;;;;13.83;12.73;;;5.10;99.90;;;;;;5067107;27;20451;-74
2022/01/11 17:31:46;;;;;;;12.00;11.30;;;5.10;99.90;;;;;;5066800;28;20471;-74
2022/01/11 17:34:13;;;;;;;13.10;12.30;;;5.10;99.90;;;;;;5066664;28;20935;-74
2022/01/11 17:36:40;;;;;;;12.73;11.80;;;5.20;99.90;;;;;;5066479;28;21259;-74
2022/01/11 17:39:07;;;;;;;12.20;11.50;;;5.10;99.90;;;;;;5066494;28;20452;-73
2022/01/11 17:41:34;;;;;;;13.60;12.50;;;5.00;99.90;;;;;;5066422;28;20948;-73
2022/01/11 17:44:02;;;;;;;14.00;13.00;;;5.00;99.90;;;;;;5066754;28;20446;-73
2022/01/11 17:46:31;;;;;;;12.17;11.30;;;5.00;99.90;;;;;;5066427;28;20839;-73
2022/01/11 17:48:59;;;;;;;12.70;11.77;;;5.00;99.90;;;;;;5066432;28;20447;-73
2022/01/11 17:51:27;;;;;;;11.67;10.83;;;5.00;99.90;;;;;;5066405;27;20862;-74
2022/01/11 17:53:54;;;;;;;12.47;11.73;;;5.00;99.90;;;;;;5066148;27;20551;-74
2022/01/11 17:56:21;;;;;;;13.43;12.53;;;5.00;99.90;;;;;;5066226;27;20955;-74
2022/01/11 17:58:48;;;;;;;14.50;13.47;;;5.00;99.90;;;;;;5066525;28;20814;-74
